Time;durP1;ratioP1;P1;durP2;ratioP2;P2;SDS_P1;SDS_P2;PMS_P1;PMS_P2;Temp;Humidity;BMP_temperature;BMP_pressure;BME280_temperature;BME280_humidity;BME280_pressure;Samples;Min_cycle;Max_cycle;Signal;HPM_P1;HPM_P2
2022/09/02 00:00:09;;;;;;;960.90;897.20;;;;;;;17.54;53.51;101772.72;694008;28;46405;-63
2022/09/02 00:00:32;;;;;;;979.83;915.40;;;;;;;17.53;53.38;101765.59;693326;28;92960;-63
2022/09/02 00:00:59;;;;;;;971.42;907.30;;;;;;;17.51;53.84;101763.06;694929;28;46320;-63
2022/09/02 00:01:25;;;;;;;947.90;884.72;;;;;;;17.53;53.77;101771.88;691855;28;137942;-63
2022/09/02 00:01:47;;;;;;;952.63;889.25;;;;;;;17.53;53.66;101762.84;690829;28;137919;-63
2022/09/02 00:02:09;;;;;;;964.72;900.85;;;;;;;17.52;53.67;101763.88;694896;28;46761;-63
2022/09/02 00:02:31;;;;;;;970.67;906.70;;;;;;;17.49;53.68;101765.13;695002;28;46336;-63
2022/09/02 00:02:53;;;;;;;964.22;900.50;;;;;;;17.48;53.83;101768.91;695451;28;22413;-63
2022/09/02 00:03:15;;;;;;;958.53;894.85;;;;;;;17.47;53.69;101764.47;694391;28;67479;-63
2022/09/02 00:03:36;;;;;;;960.17;896.50;;;;;;;17.47;53.93;101767.22;694329;28;44400;-63
2022/09/02 00:04:02;;;;;;;959.33;895.60;;;;;;;17.45;53.72;101775.59;692667;28;23257;-63
2022/09/02 00:04:25;;;;;;;958.50;894.75;;;;;;;17.44;53.81;101764.88;688658;28;137611;-63
2022/09/02 00:04:47;;;;;;;951.70;888.42;;;;;;;17.47;53.70;101769.94;691249;28;69430;-63
2022/09/02 00:05:08;;;;;;;963.03;899.42;;;;;;;17.45;54.09;101766.56;695602;28;23726;-63
2022/09/02 00:05:30;;;;;;;963.45;899.92;;;;;;;17.45;53.65;101769.31;695049;28;45245;-63
2022/09/02 00:05:52;;;;;;;965.15;901.40;;;;;;;17.43;54.07;101765.94;695638;28;23307;-63
2022/09/02 00:06:15;;;;;;;957.05;893.42;;;;;;;17.44;53.86;101767.59;694149;28;68305;-63
2022/09/02 00:06:37;;;;;;;947.35;884.15;;;;;;;17.44;54.07;101767.59;693423;28;92465;-63
2022/09/02 00:06:58;;;;;;;960.72;896.72;;;;;;;17.45;53.97;101772.88;694513;28;22346;-63
2022/09/02 00:07:21;;;;;;;964.28;899.95;;;;;;;17.46;54.00;101766.38;695670;28;24479;-63
2022/09/02 00:07:42;;;;;;;958.88;895.25;;;;;;;17.47;54.00;101769.94;694284;28;67337;-63
2022/09/02 00:08:04;;;;;;;959.00;895.30;;;;;;;17.48;53.97;101771.66;691853;28;23278;-63
2022/09/02 00:08:25;;;;;;;968.78;904.70;;;;;;;17.48;53.60;101764.28;692481;28;46381;-63
2022/09/02 00:08:47;;;;;;;967.92;903.95;;;;;;;17.41;53.86;101749.75;692250;28;45251;-63
2022/09/02 00:09:12;;;;;;;953.67;890.20;;;;;;;17.48;53.72;101766.19;693009;28;22393;-63
2022/09/02 00:09:37;;;;;;;964.65;900.83;;;;;;;17.50;54.07;101769.56;688962;28;138039;-63
2022/09/02 00:09:59;;;;;;;974.15;909.97;;;;;;;17.52;53.96;101763.88;689841;28;115259;-63
2022/09/02 00:10:20;;;;;;;973.60;909.15;;;;;;;17.53;53.96;101765.59;691876;28;36769;-63
2022/09/02 00:10:43;;;;;;;963.13;899.22;;;;;;;17.53;54.03;101768.31;693487;28;24001;-63
2022/09/02 00:11:07;;;;;;;962.30;898.60;;;;;;;17.54;53.69;101761.78;691637;28;70417;-63
2022/09/02 00:11:31;;;;;;;966.33;902.42;;;;;;;17.54;53.71;101764.53;690578;28;90657;-63
2022/09/02 00:11:53;;;;;;;962.95;899.20;;;;;;;17.56;53.70;101771.50;691180;28;93253;-63
2022/09/02 00:12:15;;;;;;;958.08;894.40;;;;;;;17.56;53.72;101763.31;694119;28;69424;-63
2022/09/02 00:12:37;;;;;;;959.85;896.10;;;;;;;17.58;53.58;101760.38;695580;28;22399;-63
2022/09/02 00:12:59;;;;;;;953.50;890.05;;;;;;;17.59;53.82;101765.63;694191;28;67285;-63
2022/09/02 00:13:21;;;;;;;946.80;883.63;;;;;;;17.59;53.86;101764.81;695895;28;21466;-63
2022/09/02 00:13:42;;;;;;;958.38;894.83;;;;;;;17.60;53.87;101770.06;694944;28;47635;-63
2022/09/02 00:14:07;;;;;;;954.33;890.90;;;;;;;17.61;53.92;101754.50;695009;28;44380;-63
2022/09/02 00:14:31;;;;;;;954.38;890.97;;;;;;;17.61;53.72;101771.72;692262;28;115093;-63
2022/09/02 00:14:52;;;;;;;953.78;890.38;;;;;;;17.62;53.69;101761.66;694187;28;69546;-63
2022/09/02 00:15:13;;;;;;;960.15;896.55;;;;;;;17.61;53.53;101769.00;695927;28;23420;-63
2022/09/02 00:15:42;;;;;;;960.45;896.83;;;;;;;17.64;53.54;101756.84;694481;28;60012;-63
2022/09/02 00:16:05;;;;;;;960.83;897.20;;;;;;;17.65;53.75;101766.75;694677;28;46350;-63
2022/09/02 00:16:26;;;;;;;956.45;893.05;;;;;;;17.65;53.71;101758.53;694072;28;69466;-63
2022/09/02 00:16:50;;;;;;;955.50;892.22;;;;;;;17.61;53.66;101760.81;695048;28;22240;-63
2022/09/02 00:17:12;;;;;;;962.55;898.50;;;;;;;17.65;53.71;101756.66;692048;28;113530;-63
2022/09/02 00:17:34;;;;;;;970.33;906.22;;;;;;;17.64;53.56;101754.94;694885;28;44350;-63
2022/09/02 00:17:56;;;;;;;959.50;895.92;;;;;;;17.65;53.53;101761.28;695670;28;22382;-63
2022/09/02 00:18:17;;;;;;;954.00;890.60;;;;;;;17.64;53.47;101759.56;694261;28;67465;-63
2022/09/02 00:18:40;;;;;;;964.80;900.90;;;;;;;17.63;53.66;101764.19;695526;28;22408;-63
2022/09/02 00:19:03;;;;;;;962.55;898.75;;;;;;;17.64;53.62;101765.03;694078;28;69099;-63
2022/09/02 00:19:26;;;;;;;962.45;898.65;;;;;;;17.63;53.47;101756.00;693932;28;70189;-63
2022/09/02 00:19:47;;;;;;;962.67;898.90;;;;;;;17.63;53.48;101758.75;694106;28;67472;-63
2022/09/02 00:20:09;;;;;;;963.08;899.28;;;;;;;17.64;53.57;101751.38;695786;28;23314;-63
2022/09/02 00:20:30;;;;;;;958.20;894.67;;;;;;;17.61;53.52;101746.31;694883;28;45235;-63
2022/09/02 00:20:53;;;;;;;968.00;904.13;;;;;;;17.65;53.69;101756.66;695587;28;23477;-63
2022/09/02 00:21:15;;;;;;;966.08;902.17;;;;;;;17.65;53.62;101758.53;694225;28;69451;-63
2022/09/02 00:21:36;;;;;;;965.63;901.83;;;;;;;17.64;53.35;101752.22;695037;28;46309;-63
2022/09/02 00:21:59;;;;;;;961.10;897.40;;;;;;;17.64;53.45;101754.94;694822;28;23490;-63
2022/09/02 00:22:22;;;;;;;961.58;897.90;;;;;;;17.63;53.63;101752.41;694157;28;70511;-63
2022/09/02 00:22:44;;;;;;;967.83;903.92;;;;;;;17.62;53.65;101753.47;694225;28;67501;-63
2022/09/02 00:23:07;;;;;;;970.70;906.65;;;;;;;17.61;53.57;101760.81;695542;28;23468;-63
2022/09/02 00:23:28;;;;;;;964.95;901.17;;;;;;;17.59;53.32;101743.78;693345;28;92244;-63
2022/09/02 00:23:50;;;;;;;959.25;895.63;;;;;;;17.57;53.68;101753.19;695744;28;22366;-63
2022/09/02 00:24:12;;;;;;;964.78;900.85;;;;;;;17.60;53.62;101758.28;694999;28;44383;-63
2022/09/02 00:24:35;;;;;;;953.13;889.75;;;;;;;17.60;53.47;101753.69;694987;28;44367;-63
2022/09/02 00:24:56;;;;;;;967.55;903.45;;;;;;;17.58;53.49;101746.72;693862;28;67381;-63
2022/09/02 00:25:18;;;;;;;975.00;909.65;;;;;;;17.59;53.75;101749.25;694206;28;23979;-63
2022/09/02 00:25:43;;;;;;;974.00;909.83;;;;;;;17.57;53.42;101761.41;694963;28;45327;-63
2022/09/02 00:26:04;;;;;;;956.70;893.13;;;;;;;17.55;53.52;101758.03;692476;28;113376;-63
2022/09/02 00:26:27;;;;;;;957.88;894.30;;;;;;;17.52;53.59;101756.53;695793;28;23744;-63
2022/09/02 00:26:48;;;;;;;958.72;895.05;;;;;;;17.53;53.71;101762.84;691472;28;67257;-63
2022/09/02 00:27:10;;;;;;;970.43;905.90;;;;;;;17.52;53.57;101758.44;689382;28;22418;-63
2022/09/02 00:27:32;;;;;;;964.42;900.40;;;;;;;17.51;53.68;101757.59;686376;28;45292;-63
2022/09/02 00:27:53;;;;;;;969.80;905.78;;;;;;;17.50;53.77;101764.09;684240;28;44137;-63
2022/09/02 00:28:16;;;;;;;977.55;913.17;;;;;;;17.48;53.76;101753.38;684534;28;22377;-63
2022/09/02 00:28:38;;;;;;;976.65;912.30;;;;;;;17.50;54.18;101757.78;681621;28;69420;-63
2022/09/02 00:29:00;;;;;;;972.75;908.75;;;;;;;17.48;53.65;101758.00;684157;28;44341;-63
2022/09/02 00:29:21;;;;;;;971.45;907.40;;;;;;;17.48;53.78;101758.81;684828;28;44656;-63
2022/09/02 00:29:43;;;;;;;967.10;903.28;;;;;;;17.47;54.05;101754.41;688100;28;22391;-63
2022/09/02 00:30:06;;;;;;;961.80;898.10;;;;;;;17.47;53.96;101757.13;688518;28;67384;-63
2022/09/02 00:30:30;;;;;;;955.20;891.70;;;;;;;17.47;53.84;101753.56;690667;28;38755;-63
2022/09/02 00:30:51;;;;;;;968.90;904.85;;;;;;;17.47;53.93;101759.84;693915;28;23629;-63
2022/09/02 00:31:13;;;;;;;972.40;908.28;;;;;;;17.46;53.93;101754.59;694587;28;46267;-63
2022/09/02 00:31:36;;;;;;;963.78;899.88;;;;;;;17.49;54.14;101754.19;695536;28;22202;-63
2022/09/02 00:31:57;;;;;;;960.92;897.20;;;;;;;17.48;53.88;101756.09;695305;28;67280;-63
2022/09/02 00:32:19;;;;;;;956.58;893.10;;;;;;;17.50;53.91;101760.53;694695;28;45231;-63
2022/09/02 00:32:41;;;;;;;961.33;897.65;;;;;;;17.51;54.12;101756.72;695449;28;22410;-63
2022/09/02 00:33:04;;;;;;;963.13;899.38;;;;;;;17.50;53.74;101758.63;694504;28;45284;-63
2022/09/02 00:33:25;;;;;;;956.00;892.50;;;;;;;17.52;53.97;101756.53;693832;28;67498;-63
2022/09/02 00:33:49;;;;;;;969.55;905.53;;;;;;;17.53;53.93;101758.22;694656;28;46594;-63
2022/09/02 00:34:11;;;;;;;973.63;909.45;;;;;;;17.54;53.84;101749.00;691721;28;90741;-63
2022/09/02 00:34:34;;;;;;;959.00;895.33;;;;;;;17.54;53.75;101759.06;694597;28;46161;-63
2022/09/02 00:34:56;;;;;;;971.50;907.40;;;;;;;17.55;53.94;101753.41;694679;28;44292;-63
2022/09/02 00:35:18;;;;;;;960.70;897.03;;;;;;;17.55;53.82;101750.66;693433;28;69391;-63
2022/09/02 00:35:40;;;;;;;961.35;897.70;;;;;;;17.56;53.85;101749.63;694463;28;46304;-63
2022/09/02 00:36:04;;;;;;;959.05;895.53;;;;;;;17.58;54.03;101755.75;694636;28;44327;-63
2022/09/02 00:36:25;;;;;;;966.25;902.40;;;;;;;17.60;53.94;101759.13;692381;28;39265;-63
2022/09/02 00:36:47;;;;;;;958.13;894.47;;;;;;;17.61;53.68;101752.63;687887;28;46246;-63
2022/09/02 00:37:08;;;;;;;960.75;896.78;;;;;;;17.62;53.94;101750.75;686690;28;21548;-63
2022/09/02 00:37:29;;;;;;;972.05;907.95;;;;;;;17.62;53.86;101745.28;687305;28;45225;-63
2022/09/02 00:37:51;;;;;;;976.22;911.97;;;;;;;17.62;53.54;101743.38;689470;28;22413;-63
2022/09/02 00:38:13;;;;;;;977.53;913.20;;;;;;;17.62;53.65;101743.38;690507;28;21528;-63
2022/09/02 00:38:35;;;;;;;966.22;902.17;;;;;;;17.64;53.53;101751.38;690732;28;69247;-63
2022/09/02 00:38:57;;;;;;;983.40;918.97;;;;;;;17.63;53.68;101745.09;692294;28;33637;-63
2022/09/02 00:39:18;;;;;;;978.63;914.45;;;;;;;17.65;53.57;101748.44;690296;28;22512;-63
2022/09/02 00:39:42;;;;;;;954.50;891.17;;;;;;;17.67;53.58;101744.69;689060;28;44359;-63
2022/09/02 00:40:05;;;;;;;967.38;903.53;;;;;;;17.66;53.74;101743.81;687211;28;92256;-63
2022/09/02 00:40:30;;;;;;;963.63;900.03;;;;;;;17.68;53.39;101747.22;691313;28;69399;-63
2022/09/02 00:40:52;;;;;;;962.15;898.55;;;;;;;17.69;53.51;101751.63;688031;28;115128;-63
2022/09/02 00:41:16;;;;;;;963.15;899.42;;;;;;;17.72;53.57;101747.66;688737;28;67457;-63
2022/09/02 00:41:39;;;;;;;972.78;908.78;;;;;;;17.72;53.48;101743.03;687262;28;67474;-63
2022/09/02 00:42:02;;;;;;;958.97;895.28;;;;;;;17.73;53.70;101746.63;687669;28;70155;-63
2022/09/02 00:42:25;;;;;;;950.28;886.97;;;;;;;17.75;53.22;101747.25;688468;28;68413;-63
2022/09/02 00:42:46;;;;;;;960.17;896.58;;;;;;;17.75;53.61;101747.25;690074;28;69430;-63
2022/09/02 00:43:08;;;;;;;965.80;902.00;;;;;;;17.75;53.35;101752.72;692650;28;22406;-63
2022/09/02 00:43:40;;;;;;;970.00;905.92;;;;;;;17.76;53.23;101746.22;691836;28;46482;-63
2022/09/02 00:44:05;;;;;;;972.45;908.40;;;;;;;17.74;53.47;101745.56;688192;28;160826;-63
2022/09/02 00:44:26;;;;;;;975.72;911.55;;;;;;;17.77;53.33;101747.88;688976;28;138209;-63
2022/09/02 00:44:48;;;;;;;972.22;908.10;;;;;;;17.79;53.38;101746.66;692704;28;22397;-63
2022/09/02 00:45:11;;;;;;;964.50;900.75;;;;;;;17.79;53.40;101746.66;691903;28;46283;-63
2022/09/02 00:45:34;;;;;;;977.67;913.47;;;;;;;17.79;53.17;101743.06;690220;28;92577;-63
2022/09/02 00:45:56;;;;;;;966.65;902.63;;;;;;;17.80;53.35;101745.59;688894;28;45214;-63
2022/09/02 00:46:20;;;;;;;967.65;903.65;;;;;;;17.81;53.30;101743.72;689165;28;45095;-63
2022/09/02 00:46:41;;;;;;;966.53;902.67;;;;;;;17.81;53.38;101744.56;688952;28;92260;-63
2022/09/02 00:47:04;;;;;;;983.28;918.53;;;;;;;17.81;53.29;101743.72;691299;28;22417;-63
2022/09/02 00:47:26;;;;;;;976.70;912.13;;;;;;;17.82;53.08;101745.38;692068;28;67592;-63
2022/09/02 00:47:49;;;;;;;962.13;898.35;;;;;;;17.83;53.27;101747.91;693143;28;44369;-63
2022/09/02 00:48:10;;;;;;;960.97;897.20;;;;;;;17.84;53.15;101748.78;693751;28;69419;-63
2022/09/02 00:48:32;;;;;;;963.25;899.47;;;;;;;17.84;53.18;101749.63;695020;28;22443;-63
2022/09/02 00:48:58;;;;;;;968.47;904.58;;;;;;;17.85;53.25;101747.72;694495;28;44377;-63
2022/09/02 00:49:23;;;;;;;969.88;905.83;;;;;;;17.85;53.10;101745.00;691273;28;137511;-63
2022/09/02 00:49:49;;;;;;;967.63;903.65;;;;;;;17.84;53.19;101746.06;692091;28;115960;-63
2022/09/02 00:50:14;;;;;;;958.05;894.38;;;;;;;17.85;53.01;101747.72;689790;28;113535;-63
2022/09/02 00:50:36;;;;;;;971.80;907.80;;;;;;;17.84;53.08;101744.16;689335;28;114643;-63
2022/09/02 00:50:58;;;;;;;964.80;901.13;;;;;;;17.84;53.01;101748.78;688547;28;45231;-64
2022/09/02 00:51:20;;;;;;;959.20;895.67;;;;;;;17.84;53.08;101743.31;685803;28;69397;-63
2022/09/02 00:51:44;;;;;;;970.70;906.90;;;;;;;17.84;53.14;101746.88;685775;28;46311;-63
2022/09/02 00:52:09;;;;;;;962.22;898.63;;;;;;;17.82;53.44;101742.66;685713;28;89277;-63
2022/09/02 00:52:34;;;;;;;957.80;894.33;;;;;;;17.82;53.12;101748.97;689441;28;113669;-63
2022/09/02 00:53:01;;;;;;;968.65;904.83;;;;;;;17.82;53.07;101746.25;691582;28;136392;-63
2022/09/02 00:53:24;;;;;;;962.15;898.45;;;;;;;17.82;53.11;101739.91;691483;28;137885;-63
2022/09/02 00:53:46;;;;;;;953.30;889.90;;;;;;;17.82;52.98;101742.66;694139;28;67506;-63
2022/09/02 00:54:08;;;;;;;950.97;887.67;;;;;;;17.82;53.42;101742.66;694811;28;44355;-63
2022/09/02 00:54:32;;;;;;;938.00;875.10;;;;;;;17.81;53.25;101741.00;694886;28;46293;-63
2022/09/02 00:54:57;;;;;;;935.75;872.97;;;;;;;17.82;53.27;101743.53;692349;28;115060;-63
2022/09/02 00:55:21;;;;;;;934.55;871.72;;;;;;;17.81;53.02;101746.44;692503;28;115106;-63
2022/09/02 00:55:46;;;;;;;926.50;863.95;;;;;;;17.80;53.26;101744.75;693816;28;70409;-63
2022/09/02 00:56:12;;;;;;;926.95;864.40;;;;;;;17.79;53.28;101738.47;691209;28;138122;-63
2022/09/02 00:56:37;;;;;;;919.72;857.40;;;;;;;17.83;53.09;101744.34;692172;28;115114;-63
2022/09/02 00:57:00;;;;;;;920.30;857.80;;;;;;;17.83;53.29;101744.34;689836;28;138005;-63
2022/09/02 00:57:23;;;;;;;922.35;859.90;;;;;;;17.85;53.03;101747.72;694576;28;46034;-63
2022/09/02 00:57:46;;;;;;;925.20;862.78;;;;;;;17.86;53.30;101745.84;693118;28;92006;-63
2022/09/02 00:58:14;;;;;;;932.92;870.15;;;;;;;17.79;52.91;101730.25;693735;28;69443;-63
2022/09/02 00:58:37;;;;;;;925.10;862.65;;;;;;;17.85;52.90;101747.72;691484;28;136264;-63
2022/09/02 00:58:59;;;;;;;928.00;865.28;;;;;;;17.87;52.88;101742.06;693681;28;69427;-63
2022/09/02 00:59:23;;;;;;;939.97;876.75;;;;;;;17.85;53.22;101739.53;691069;28;45264;-63
2022/09/02 00:59:48;;;;;;;932.17;869.50;;;;;;;17.84;52.85;101744.16;685525;28;92107;-63
2022/09/02 01:00:16;;;;;;;937.65;874.83;;;;;;;17.85;52.99;101742.25;686754;28;115153;-63
2022/09/02 01:00:41;;;;;;;951.53;888.20;;;;;;;17.86;52.95;101743.13;686131;28;137973;-63
2022/09/02 01:01:03;;;;;;;941.08;878.15;;;;;;;17.85;53.25;101742.25;689473;28;116017;-63
2022/09/02 01:01:25;;;;;;;937.78;874.90;;;;;;;17.85;52.99;101742.25;691901;28;46367;-63
2022/09/02 01:01:48;;;;;;;933.05;870.42;;;;;;;17.86;53.27;101749.41;692898;28;69432;-63
2022/09/02 01:02:09;;;;;;;931.15;868.58;;;;;;;17.84;52.98;101744.16;696020;28;46593;-63
2022/09/02 01:02:30;;;;;;;940.20;877.33;;;;;;;17.84;52.99;101738.69;697278;28;46323;-63
2022/09/02 01:02:55;;;;;;;951.90;888.70;;;;;;;17.83;53.06;101741.63;698226;28;23683;-63
2022/09/02 01:03:20;;;;;;;929.30;866.80;;;;;;;17.84;53.01;101741.41;695136;28;115273;-63
2022/09/02 01:03:41;;;;;;;931.83;869.15;;;;;;;17.84;52.99;101746.06;695495;28;115160;-63
2022/09/02 01:04:02;;;;;;;938.75;875.85;;;;;;;17.84;52.97;101744.16;692935;28;21501;-63
2022/09/02 01:04:24;;;;;;;945.95;882.75;;;;;;;17.83;53.35;101744.34;692202;28;22383;-63
2022/09/02 01:04:46;;;;;;;961.75;897.97;;;;;;;17.85;53.06;101736.78;689256;28;45247;-63
2022/09/02 01:05:10;;;;;;;944.30;881.17;;;;;;;17.81;53.19;101735.53;689060;28;44041;-63
2022/09/02 01:05:34;;;;;;;947.42;884.05;;;;;;;17.85;53.13;101742.25;686472;28;92290;-63
2022/09/02 01:05:56;;;;;;;941.45;878.47;;;;;;;17.86;53.29;101743.94;687536;28;92044;-63
2022/09/02 01:06:21;;;;;;;948.20;884.90;;;;;;;17.83;53.24;101734.25;690485;28;47769;-63
2022/09/02 01:06:42;;;;;;;947.03;883.80;;;;;;;17.86;53.18;101743.94;689330;28;116002;-63
2022/09/02 01:07:04;;;;;;;952.63;888.90;;;;;;;17.87;53.28;101748.38;693822;28;43391;-63
2022/09/02 01:07:29;;;;;;;953.17;889.63;;;;;;;17.84;53.32;101741.41;695106;28;67489;-63
2022/09/02 01:07:53;;;;;;;952.33;888.83;;;;;;;17.88;53.19;101741.88;694640;28;115060;-63
2022/09/02 01:08:18;;;;;;;939.72;876.70;;;;;;;17.87;53.38;101742.91;693591;28;69201;-63
2022/09/02 01:08:41;;;;;;;946.55;883.20;;;;;;;17.89;53.06;101745.47;692063;28;113729;-63
2022/09/02 01:09:08;;;;;;;943.40;880.35;;;;;;;17.89;53.24;101743.59;693025;28;90498;-63
2022/09/02 01:09:31;;;;;;;952.60;889.13;;;;;;;17.87;53.08;101740.19;691579;28;138351;-63
2022/09/02 01:09:54;;;;;;;940.70;877.78;;;;;;;17.89;53.34;101742.75;693962;28;69018;-63
2022/09/02 01:10:19;;;;;;;944.53;881.38;;;;;;;17.88;53.03;101735.56;696728;28;67267;-63
2022/09/02 01:10:42;;;;;;;957.90;894.28;;;;;;;17.89;53.19;101743.59;694854;28;115064;-63
2022/09/02 01:11:05;;;;;;;935.83;872.97;;;;;;;17.88;53.23;101739.16;695614;28;92232;-63
2022/09/02 01:11:31;;;;;;;958.42;894.97;;;;;;;17.90;53.26;101748.00;697176;28;46438;-63
2022/09/02 01:11:53;;;;;;;956.50;893.08;;;;;;;17.90;53.09;101737.09;692029;28;136414;-63
2022/09/02 01:12:16;;;;;;;970.65;906.65;;;;;;;17.91;53.06;101746.13;691597;28;69236;-63
2022/09/02 01:12:38;;;;;;;976.60;912.35;;;;;;;17.91;53.17;101740.66;691781;28;44382;-63
2022/09/02 01:13:05;;;;;;;968.63;904.72;;;;;;;17.86;53.05;101737.66;691764;28;45233;-63
2022/09/02 01:13:29;;;;;;;968.70;904.80;;;;;;;17.88;53.01;101735.56;688762;28;138674;-63
2022/09/02 01:13:51;;;;;;;967.40;903.70;;;;;;;17.88;52.92;101746.47;690499;28;92346;-63
2022/09/02 01:14:14;;;;;;;966.05;902.45;;;;;;;17.87;53.25;101740.19;691266;28;70135;-63
2022/09/02 01:14:36;;;;;;;959.55;896.00;;;;;;;17.86;53.17;101737.66;691479;28;69216;-63
2022/09/02 01:14:57;;;;;;;966.95;903.10;;;;;;;17.87;53.29;101742.06;692357;28;23465;-63
2022/09/02 01:15:18;;;;;;;976.67;912.58;;;;;;;17.87;53.23;101739.31;692654;28;23477;-63
2022/09/02 01:15:42;;;;;;;972.47;908.40;;;;;;;17.87;52.97;101739.31;691888;28;45259;-63
2022/09/02 01:16:11;;;;;;;968.13;904.22;;;;;;;17.87;53.12;101733.84;690222;28;90696;-63
2022/09/02 01:16:37;;;;;;;961.95;898.20;;;;;;;17.88;53.21;101730.09;683428;28;137783;-63
2022/09/02 01:16:59;;;;;;;965.38;901.47;;;;;;;17.89;53.05;101740.03;681605;28;138697;-63
2022/09/02 01:17:21;;;;;;;960.58;896.75;;;;;;;17.88;53.24;101732.81;686331;28;46317;-63
2022/09/02 01:17:45;;;;;;;952.50;889.15;;;;;;;17.88;53.39;101739.16;684692;28;22159;-63
2022/09/02 01:18:09;;;;;;;959.13;895.47;;;;;;;17.88;53.25;101739.16;682207;28;90685;-63
2022/09/02 01:18:31;;;;;;;955.78;892.35;;;;;;;17.87;52.83;101737.44;682260;28;98925;-63
2022/09/02 01:18:54;;;;;;;948.70;885.42;;;;;;;17.89;53.30;101737.28;687403;28;23697;-63
2022/09/02 01:19:21;;;;;;;950.40;887.13;;;;;;;17.87;53.05;101734.72;684855;28;90297;-63
2022/09/02 01:19:48;;;;;;;962.20;898.42;;;;;;;17.87;53.15;101732.00;685545;28;136183;-63
2022/09/02 01:20:14;;;;;;;961.83;898.20;;;;;;;17.89;53.12;101740.03;688755;28;138041;-63
2022/09/02 01:20:36;;;;;;;973.10;909.05;;;;;;;17.88;53.39;101736.41;688607;28;137909;-63
2022/09/02 01:20:58;;;;;;;972.53;908.38;;;;;;;17.89;53.00;101731.81;689708;28;23500;-63
2022/09/02 01:21:21;;;;;;;962.58;898.78;;;;;;;17.89;53.13;101734.56;685565;28;69356;-61
2022/09/02 01:21:46;;;;;;;959.58;895.92;;;;;;;17.89;53.28;101734.56;687954;28;69076;-63
2022/09/02 01:22:14;;;;;;;962.30;898.60;;;;;;;17.89;53.26;101735.38;690448;28;133528;-63
2022/09/02 01:22:37;;;;;;;962.28;898.63;;;;;;;17.88;53.27;101736.41;691374;28;138116;-63
2022/09/02 01:22:58;;;;;;;959.65;896.03;;;;;;;17.88;53.25;101736.41;696764;28;46273;-63
2022/09/02 01:23:20;;;;;;;958.90;895.15;;;;;;;17.88;53.21;101736.41;696170;28;39872;-63
2022/09/02 01:23:41;;;;;;;970.40;906.25;;;;;;;17.84;53.23;101735.94;692045;28;44370;-63
2022/09/02 01:24:04;;;;;;;965.17;901.38;;;;;;;17.87;53.13;101725.66;689827;28;21503;-63
2022/09/02 01:24:28;;;;;;;954.92;891.53;;;;;;;17.88;53.39;101735.56;688371;28;67473;-62
2022/09/02 01:24:50;;;;;;;970.05;906.10;;;;;;;17.88;53.14;101732.81;685060;28;92297;-63
2022/09/02 01:25:16;;;;;;;969.05;905.25;;;;;;;17.86;53.35;101733.03;685513;28;69544;-63
2022/09/02 01:25:39;;;;;;;959.28;895.78;;;;;;;17.86;53.15;101730.28;684938;28;138910;-63
2022/09/02 01:26:00;;;;;;;965.63;901.88;;;;;;;17.87;53.51;101736.59;690232;28;69278;-63
2022/09/02 01:26:21;;;;;;;961.03;897.47;;;;;;;17.86;53.23;101729.47;692688;28;22388;-63
2022/09/02 01:26:43;;;;;;;960.20;896.65;;;;;;;17.86;53.38;101735.75;692700;28;22323;-63
2022/09/02 01:27:04;;;;;;;964.00;899.92;;;;;;;17.87;53.50;101734.72;690019;28;66217;-63
2022/09/02 01:27:27;;;;;;;966.08;902.00;;;;;;;17.87;53.41;101728.38;692388;28;21532;-63
2022/09/02 01:27:49;;;;;;;963.90;900.15;;;;;;;17.87;53.35;101737.44;690867;28;69653;-63
2022/09/02 01:28:18;;;;;;;958.28;894.65;;;;;;;17.88;53.30;101735.56;690515;28;84098;-63
2022/09/02 01:28:39;;;;;;;959.20;895.60;;;;;;;17.88;53.17;101732.81;688982;28;45351;-63
2022/09/02 01:29:02;;;;;;;960.03;896.53;;;;;;;17.86;53.04;101733.03;690977;28;44415;-63
2022/09/02 01:29:26;;;;;;;960.13;896.63;;;;;;;17.86;53.09;101730.28;688731;28;44198;-63
2022/09/02 01:29:50;;;;;;;952.33;889.03;;;;;;;17.87;53.27;101728.38;688367;28;93218;-63
2022/09/02 01:30:17;;;;;;;950.67;887.40;;;;;;;17.85;53.04;101728.59;690239;28;90710;-62
2022/09/02 01:30:43;;;;;;;956.30;892.72;;;;;;;17.87;53.21;101728.38;688492;28;137966;-62
2022/09/02 01:31:05;;;;;;;964.42;900.65;;;;;;;17.85;53.34;101725.84;689404;28;115241;-62
2022/09/02 01:31:27;;;;;;;965.08;901.22;;;;;;;17.88;53.13;101730.94;693487;28;67491;-63
2022/09/02 01:31:48;;;;;;;971.50;907.45;;;;;;;17.87;53.24;101729.25;694626;28;21145;-63
2022/09/02 01:32:09;;;;;;;968.50;904.58;;;;;;;17.83;53.06;101723.31;695305;28;22354;-63
2022/09/02 01:32:31;;;;;;;956.78;893.28;;;;;;;17.87;53.19;101726.53;695455;28;22388;-63
2022/09/02 01:32:54;;;;;;;956.15;892.63;;;;;;;17.87;53.34;101734.72;694314;28;46446;-62
2022/09/02 01:33:16;;;;;;;977.08;912.75;;;;;;;17.86;52.99;101730.28;691023;28;67485;-63
2022/09/02 01:33:38;;;;;;;968.20;904.20;;;;;;;17.87;52.94;101725.66;689883;28;23283;-63
2022/09/02 01:33:59;;;;;;;963.53;899.83;;;;;;;17.85;53.24;101728.59;689306;28;46388;-62
2022/09/02 01:34:21;;;;;;;968.70;904.83;;;;;;;17.87;53.20;101731.13;689090;28;46293;-63
2022/09/02 01:34:43;;;;;;;962.90;899.10;;;;;;;17.87;53.07;101722.94;690032;28;46477;-62
2022/09/02 01:35:06;;;;;;;964.97;901.05;;;;;;;17.86;53.14;101724.81;692492;28;23346;-63
2022/09/02 01:35:27;;;;;;;953.03;889.28;;;;;;;17.87;52.95;101728.38;687838;28;68810;-63
2022/09/02 01:35:50;;;;;;;953.08;889.33;;;;;;;17.86;53.25;101730.28;690111;28;45210;-63
2022/09/02 01:36:12;;;;;;;938.45;875.53;;;;;;;17.83;53.09;101728.78;690898;28;68289;-63
2022/09/02 01:36:37;;;;;;;941.58;878.60;;;;;;;17.85;53.16;101731.31;690985;28;69520;-63
2022/09/02 01:37:00;;;;;;;943.47;880.42;;;;;;;17.83;53.14;101727.97;688235;28;50295;-63
2022/09/02 01:37:21;;;;;;;955.72;892.22;;;;;;;17.83;53.21;101728.78;686955;28;69319;-63
2022/09/02 01:37:46;;;;;;;947.17;884.15;;;;;;;17.83;53.23;101727.97;688179;28;69410;-63
2022/09/02 01:38:08;;;;;;;951.20;887.80;;;;;;;17.80;53.39;101726.47;686862;28;92107;-63
2022/09/02 01:38:30;;;;;;;959.42;895.72;;;;;;;17.83;53.55;101725.22;688794;28;46301;-63
2022/09/02 01:38:51;;;;;;;966.30;902.50;;;;;;;17.84;53.25;101726.91;688963;28;46344;-63
2022/09/02 01:39:13;;;;;;;979.28;914.97;;;;;;;17.83;53.18;101728.78;689363;28;23720;-63
2022/09/02 01:39:36;;;;;;;969.92;906.00;;;;;;;17.84;52.96;101733.22;690386;28;46389;-63
2022/09/02 01:39:57;;;;;;;957.53;893.97;;;;;;;17.84;53.15;101733.22;691618;28;70194;-63
2022/09/02 01:40:19;;;;;;;956.08;892.55;;;;;;;17.84;53.14;101730.50;695303;28;22378;-63
2022/09/02 01:40:40;;;;;;;962.40;898.65;;;;;;;17.84;53.02;101724.19;692838;28;22166;-62
2022/09/02 01:41:03;;;;;;;956.15;892.72;;;;;;;17.86;53.07;101732.19;691701;28;46283;-63
2022/09/02 01:41:24;;;;;;;954.15;890.85;;;;;;;17.85;53.23;101725.84;691840;28;46358;-63
2022/09/02 01:41:45;;;;;;;958.05;894.58;;;;;;;17.83;53.10;101727.97;689039;28;45395;-63
2022/09/02 01:42:07;;;;;;;960.13;896.47;;;;;;;17.86;53.20;101729.47;692695;28;22396;-63
2022/09/02 01:42:28;;;;;;;958.30;894.67;;;;;;;17.84;52.98;101719.56;692254;28;45083;-61